Terminal Aerodrome Forecast
Issued by NWS Duluth, MN

Home | Current Version | Previous Version | Text Only | Print | Product List | Glossary On
Versions: 1 2 3 4 5 6 7 8 9 10 11 12
952
FTUS43 KDLH 242339
TAFINL
TAF
KINL 242339Z 2500/2524 14011KT P6SM OVC013
     FM250600 15012KT 4SM -SHRA BR BKN013 OVC019
      TEMPO 2506/2509 2SM -TSRA BR BKN007 OVC025CB
     FM251100 16009KT 4SM BR VCSH OVC004
     FM251700 19010KT P6SM BKN009 OVC025
     FM252000 24011KT 5SM -RA BR BKN009 OVC022=

USA.gov is the U.S. government's official web portal to all federal, state and local government web resources and services.